Time;durP1;ratioP1;P1;durP2;ratioP2;P2;SDS_P1;SDS_P2;PMS_P1;PMS_P2;Temp;Humidity;BMP_temperature;BMP_pressure;BME280_temperature;BME280_humidity;BME280_pressure;Samples;Min_cycle;Max_cycle;Signal;HPM_P1;HPM_P2
2023/12/23 00:00:15;;;;;;;9.50;1.15;;;7.60;99.90;;;;;;5056561;28;20773;-65
2023/12/23 00:02:41;;;;;;;9.10;1.25;;;7.60;99.90;;;;;;5053556;28;20033;-65
2023/12/23 00:05:07;;;;;;;7.38;0.77;;;7.60;99.90;;;;;;5056606;28;20014;-66
2023/12/23 00:07:33;;;;;;;6.95;1.15;;;7.60;99.90;;;;;;5053001;28;20025;-65
2023/12/23 00:09:58;;;;;;;6.65;0.90;;;7.60;99.90;;;;;;5052427;28;20467;-65
2023/12/23 00:12:24;;;;;;;10.32;1.27;;;7.60;99.90;;;;;;5049783;28;20116;-65
2023/12/23 00:14:49;;;;;;;12.02;1.45;;;7.60;99.90;;;;;;5055814;28;20025;-65
2023/12/23 00:17:15;;;;;;;7.95;0.80;;;7.60;99.90;;;;;;5052086;28;20058;-65
2023/12/23 00:19:40;;;;;;;8.02;0.95;;;7.60;99.90;;;;;;5057233;28;20024;-65
2023/12/23 00:22:06;;;;;;;6.22;0.85;;;7.60;99.90;;;;;;5055181;28;20013;-65
2023/12/23 00:24:32;;;;;;;12.40;1.13;;;7.60;99.90;;;;;;5051358;28;20024;-65
2023/12/23 00:26:58;;;;;;;5.13;0.90;;;7.60;99.90;;;;;;5051288;28;20032;-65
2023/12/23 00:29:29;;;;;;;8.30;0.85;;;7.60;99.90;;;;;;5062612;28;20028;-65
2023/12/23 00:31:54;;;;;;;5.32;1.02;;;7.60;99.90;;;;;;5044368;28;20032;-65
2023/12/23 00:34:20;;;;;;;6.03;0.90;;;7.60;99.90;;;;;;5057739;28;20433;-66
2023/12/23 00:36:45;;;;;;;5.93;0.90;;;7.60;99.90;;;;;;5058236;28;20479;-66
2023/12/23 00:39:12;;;;;;;10.20;1.10;;;7.60;99.90;;;;;;5051825;28;20032;-65
2023/12/23 00:41:37;;;;;;;9.77;1.60;;;7.60;99.90;;;;;;5052423;28;20112;-63
2023/12/23 00:44:03;;;;;;;7.47;0.82;;;7.60;99.90;;;;;;5053856;28;20112;-65
2023/12/23 00:46:28;;;;;;;6.50;0.80;;;7.60;99.90;;;;;;5048982;28;20297;-66
2023/12/23 00:48:55;;;;;;;4.18;0.98;;;7.60;99.90;;;;;;5051740;28;20029;-66
2023/12/23 00:51:21;;;;;;;10.15;0.88;;;7.60;99.90;;;;;;5050825;28;20035;-66
2023/12/23 00:53:46;;;;;;;5.40;0.80;;;7.60;99.90;;;;;;5050551;28;20033;-65
2023/12/23 00:56:21;;;;;;;7.90;1.42;;;7.50;99.90;;;;;;5057916;28;20024;-65
2023/12/23 00:58:47;;;;;;;4.68;0.57;;;7.50;99.90;;;;;;5053678;28;20084;-65
2023/12/23 01:01:12;;;;;;;12.18;1.15;;;7.50;99.90;;;;;;5054562;28;20028;-65
2023/12/23 01:03:38;;;;;;;7.72;0.88;;;7.60;99.90;;;;;;5058125;28;20104;-64
2023/12/23 01:06:03;;;;;;;5.95;1.27;;;7.60;99.90;;;;;;5048828;28;20037;-65
2023/12/23 01:08:30;;;;;;;9.90;3.70;;;7.60;99.90;;;;;;5049531;28;20093;-65
2023/12/23 01:10:55;;;;;;;10.48;0.90;;;7.50;99.90;;;;;;5046794;28;20029;-65
2023/12/23 01:13:21;;;;;;;5.90;0.75;;;7.50;99.90;;;;;;5054381;28;20020;-66
2023/12/23 01:15:47;;;;;;;4.63;1.00;;;7.60;99.90;;;;;;5053611;28;20029;-65
2023/12/23 01:18:13;;;;;;;2.88;0.65;;;7.60;99.90;;;;;;5048514;28;20029;-65
2023/12/23 01:20:39;;;;;;;6.25;0.82;;;7.60;99.90;;;;;;5047402;28;20039;-65
2023/12/23 01:23:05;;;;;;;5.53;0.75;;;7.60;99.90;;;;;;5053560;28;20386;-66
2023/12/23 01:25:31;;;;;;;9.20;1.08;;;7.60;99.90;;;;;;5055084;28;20024;-65
2023/12/23 01:28:00;;;;;;;10.05;0.93;;;7.60;99.90;;;;;;5055538;28;20036;-66
2023/12/23 01:30:25;;;;;;;7.85;0.75;;;7.60;99.90;;;;;;5043142;28;20502;-65
2023/12/23 01:32:52;;;;;;;13.38;1.23;;;7.60;99.90;;;;;;5042714;28;20119;-66
2023/12/23 01:35:17;;;;;;;12.30;0.80;;;7.60;99.90;;;;;;5053787;28;20475;-66
2023/12/23 01:37:43;;;;;;;6.47;0.93;;;7.60;99.90;;;;;;5048873;28;20082;-65
2023/12/23 01:40:09;;;;;;;5.22;1.00;;;7.60;99.90;;;;;;5052400;28;20057;-66
2023/12/23 01:42:36;;;;;;;5.53;0.98;;;7.60;99.90;;;;;;5048440;28;20041;-66
2023/12/23 01:45:03;;;;;;;9.82;1.40;;;7.60;99.90;;;;;;5051769;28;20020;-66
2023/12/23 01:47:29;;;;;;;15.25;1.23;;;7.60;99.90;;;;;;5048876;28;20052;-66
2023/12/23 01:49:56;;;;;;;5.53;1.05;;;7.60;99.90;;;;;;5044604;28;20080;-66
2023/12/23 01:52:22;;;;;;;9.73;1.30;;;7.60;99.90;;;;;;5050977;28;20024;-66
2023/12/23 01:54:48;;;;;;;8.85;1.90;;;7.50;99.90;;;;;;5053758;28;20017;-66
2023/12/23 01:57:13;;;;;;;9.40;1.08;;;7.60;99.90;;;;;;5049744;28;20066;-65
2023/12/23 01:59:39;;;;;;;5.57;1.23;;;7.50;99.90;;;;;;5052825;28;20120;-66
2023/12/23 02:02:05;;;;;;;11.15;1.10;;;7.60;99.90;;;;;;5043784;28;20025;-66
2023/12/23 02:04:31;;;;;;;6.90;1.35;;;7.60;99.90;;;;;;5052517;28;20486;-66
2023/12/23 02:06:56;;;;;;;9.48;1.20;;;7.60;99.90;;;;;;5042316;28;20061;-66
2023/12/23 02:09:22;;;;;;;5.60;1.10;;;7.60;99.90;;;;;;5055606;28;20561;-66
2023/12/23 02:11:55;;;;;;;10.30;1.15;;;7.60;99.90;;;;;;5057303;28;20060;-66
2023/12/23 02:14:36;;;;;;;8.45;1.50;;;7.60;99.90;;;;;;5055027;28;20036;-66
2023/12/23 02:17:02;;;;;;;5.75;1.25;;;7.60;99.90;;;;;;5046135;28;20151;-66
2023/12/23 02:19:27;;;;;;;10.38;2.47;;;7.60;99.90;;;;;;5059830;28;20111;-66
2023/12/23 02:21:53;;;;;;;18.50;1.65;;;7.60;99.90;;;;;;5046323;28;20047;-65
2023/12/23 02:24:18;;;;;;;8.93;1.70;;;7.70;99.90;;;;;;5047091;28;20028;-66
2023/12/23 02:26:48;;;;;;;7.95;1.55;;;7.70;99.90;;;;;;5048171;28;20085;-65
2023/12/23 02:29:15;;;;;;;8.73;1.65;;;7.60;99.90;;;;;;5056700;28;20487;-66
2023/12/23 02:31:42;;;;;;;13.80;2.17;;;7.70;99.90;;;;;;5048362;28;20059;-66
2023/12/23 02:34:08;;;;;;;6.43;1.75;;;7.80;99.90;;;;;;5055538;28;20024;-66
2023/12/23 02:36:34;;;;;;;11.18;2.05;;;7.80;99.90;;;;;;5048382;28;20028;-66
2023/12/23 02:38:59;;;;;;;14.45;2.90;;;7.80;99.90;;;;;;5051186;28;20448;-67
2023/12/23 02:41:25;;;;;;;6.38;2.83;;;7.90;99.90;;;;;;5049606;28;20081;-67
2023/12/23 02:43:50;;;;;;;11.32;2.38;;;7.90;99.90;;;;;;5050951;28;20020;-65
2023/12/23 02:46:16;;;;;;;11.32;2.63;;;8.00;99.90;;;;;;5048802;28;20036;-66
2023/12/23 02:48:41;;;;;;;13.25;3.03;;;8.10;99.90;;;;;;5049712;28;20116;-67
2023/12/23 02:51:09;;;;;;;5.65;2.40;;;8.10;99.90;;;;;;5060248;28;20051;-66
2023/12/23 02:53:35;;;;;;;16.27;3.15;;;8.20;99.90;;;;;;5044653;28;20407;-66
2023/12/23 02:56:00;;;;;;;12.98;2.70;;;8.30;99.90;;;;;;5060118;28;20041;-66
2023/12/23 02:58:26;;;;;;;12.68;3.65;;;8.40;99.90;;;;;;5049502;28;20032;-66
2023/12/23 03:00:51;;;;;;;17.33;4.65;;;8.40;99.90;;;;;;5050532;28;20036;-66
2023/12/23 03:03:17;;;;;;;15.90;5.38;;;8.50;99.90;;;;;;5051196;28;20028;-66
2023/12/23 03:05:42;;;;;;;31.73;6.32;;;8.60;99.90;;;;;;5058335;28;20033;-67
2023/12/23 03:08:08;;;;;;;21.40;6.72;;;8.70;99.90;;;;;;5050155;28;20032;-66
2023/12/23 03:10:33;;;;;;;23.38;8.07;;;8.70;99.90;;;;;;5051351;28;20037;-66
2023/12/23 03:12:59;;;;;;;24.92;7.95;;;8.80;99.90;;;;;;5046321;28;20522;-66
2023/12/23 03:15:24;;;;;;;30.45;7.72;;;8.80;99.90;;;;;;5053596;28;20068;-66
2023/12/23 03:17:50;;;;;;;23.92;8.50;;;8.90;99.90;;;;;;5044538;28;20025;-66
2023/12/23 03:20:16;;;;;;;24.17;6.68;;;8.90;99.90;;;;;;5058147;28;20013;-66
2023/12/23 03:22:41;;;;;;;19.67;7.28;;;8.90;99.90;;;;;;5037175;28;20029;-66
2023/12/23 03:25:07;;;;;;;16.95;6.43;;;9.00;99.90;;;;;;5053032;28;20032;-66
2023/12/23 03:27:32;;;;;;;29.05;7.45;;;9.00;99.90;;;;;;5053451;28;20033;-66
2023/12/23 03:29:58;;;;;;;18.52;6.32;;;9.00;99.90;;;;;;5054324;28;20037;-66
2023/12/23 03:32:24;;;;;;;18.65;6.90;;;9.10;99.90;;;;;;5048969;28;20112;-66
2023/12/23 03:34:49;;;;;;;22.77;7.35;;;9.00;99.90;;;;;;5056690;28;20033;-66
2023/12/23 03:37:15;;;;;;;17.88;7.47;;;9.00;99.90;;;;;;5042327;28;20112;-65
2023/12/23 03:39:41;;;;;;;19.58;6.70;;;9.00;99.90;;;;;;5053752;28;20027;-66
2023/12/23 03:42:06;;;;;;;25.90;6.65;;;9.00;99.90;;;;;;5048185;28;20037;-67
2023/12/23 03:44:32;;;;;;;21.80;7.30;;;9.00;99.90;;;;;;5053912;28;20021;-66
2023/12/23 03:46:57;;;;;;;21.55;6.75;;;9.10;99.90;;;;;;5045157;28;20033;-66
2023/12/23 03:49:23;;;;;;;25.60;8.60;;;9.00;99.90;;;;;;5057733;28;20047;-66
2023/12/23 03:51:48;;;;;;;26.08;8.45;;;9.10;99.90;;;;;;5046612;28;20086;-65
2023/12/23 03:54:14;;;;;;;15.82;6.43;;;9.10;99.90;;;;;;5051082;28;20112;-67
2023/12/23 03:56:39;;;;;;;16.90;6.55;;;9.10;99.90;;;;;;5046273;28;20025;-67
2023/12/23 03:59:05;;;;;;;16.67;7.47;;;9.00;99.90;;;;;;5061500;28;20660;-66
2023/12/23 04:01:30;;;;;;;22.60;7.60;;;9.10;99.90;;;;;;5052559;28;20048;-67
2023/12/23 04:03:56;;;;;;;22.67;7.22;;;9.10;99.90;;;;;;5058261;28;20036;-67
2023/12/23 04:06:21;;;;;;;19.38;6.45;;;9.10;99.90;;;;;;5054079;28;20151;-66
2023/12/23 04:08:47;;;;;;;20.80;7.10;;;9.10;99.90;;;;;;5050980;28;20029;-66
2023/12/23 04:11:12;;;;;;;18.40;6.88;;;9.10;99.90;;;;;;5050684;28;20056;-66
2023/12/23 04:13:38;;;;;;;17.10;6.45;;;9.00;99.90;;;;;;5054643;28;20116;-66
2023/12/23 04:16:04;;;;;;;17.77;6.93;;;9.00;99.90;;;;;;5054874;28;20673;-65
2023/12/23 04:18:30;;;;;;;22.23;7.05;;;9.10;99.90;;;;;;5053365;28;20502;-66
2023/12/23 04:20:55;;;;;;;17.35;6.68;;;9.10;99.90;;;;;;5049050;28;20108;-66
2023/12/23 04:23:21;;;;;;;19.02;6.05;;;9.00;99.90;;;;;;5057922;28;20126;-66
2023/12/23 04:25:47;;;;;;;27.35;6.50;;;9.00;99.90;;;;;;5052690;28;20029;-66
2023/12/23 04:28:12;;;;;;;23.88;7.45;;;9.00;99.90;;;;;;5053027;28;20401;-67
2023/12/23 04:30:38;;;;;;;15.27;6.63;;;9.00;99.90;;;;;;5054451;28;20052;-66
2023/12/23 04:33:04;;;;;;;16.25;6.15;;;9.10;99.90;;;;;;5051494;28;20033;-65
2023/12/23 04:35:29;;;;;;;21.73;6.13;;;9.10;99.90;;;;;;5061497;28;20095;-65
2023/12/23 04:37:55;;;;;;;30.13;6.18;;;9.10;99.90;;;;;;5051312;28;20040;-66
2023/12/23 04:40:21;;;;;;;19.30;6.28;;;9.10;99.90;;;;;;5054273;28;20029;-66
2023/12/23 04:42:47;;;;;;;15.18;6.07;;;9.10;99.90;;;;;;5048363;28;20043;-65
2023/12/23 04:45:12;;;;;;;22.20;5.22;;;9.10;99.90;;;;;;5076607;28;20021;-65
2023/12/23 04:47:38;;;;;;;21.45;6.47;;;9.10;99.90;;;;;;5047656;28;20531;-66
2023/12/23 04:50:04;;;;;;;19.17;5.80;;;9.10;99.90;;;;;;5065517;28;20041;-66
2023/12/23 04:52:30;;;;;;;16.35;4.85;;;9.00;99.90;;;;;;5050709;28;20025;-66
2023/12/23 04:54:55;;;;;;;22.23;5.38;;;9.00;99.90;;;;;;5053695;28;20041;-66
2023/12/23 04:57:21;;;;;;;16.85;5.30;;;9.10;99.90;;;;;;5047757;28;20069;-66
2023/12/23 04:59:47;;;;;;;18.38;4.18;;;9.10;99.90;;;;;;5055803;28;20028;-66
2023/12/23 05:02:12;;;;;;;19.95;4.75;;;9.00;99.90;;;;;;5064456;28;20017;-65
2023/12/23 05:04:38;;;;;;;11.82;4.43;;;9.10;99.90;;;;;;5059521;28;20067;-66
2023/12/23 05:07:03;;;;;;;18.42;3.70;;;9.10;99.90;;;;;;5046521;28;20465;-66
2023/12/23 05:09:29;;;;;;;23.95;3.83;;;9.20;99.90;;;;;;5050697;28;20036;-65
2023/12/23 05:11:54;;;;;;;19.85;4.13;;;9.10;99.90;;;;;;5038059;28;20029;-66
2023/12/23 05:14:20;;;;;;;20.10;4.38;;;9.10;99.90;;;;;;5054790;28;20028;-65
2023/12/23 05:16:45;;;;;;;17.65;3.90;;;9.20;99.90;;;;;;5047085;28;20415;-66
2023/12/23 05:19:11;;;;;;;14.68;3.25;;;9.20;99.90;;;;;;5060758;28;20033;-64
2023/12/23 05:21:37;;;;;;;10.82;3.40;;;9.10;99.90;;;;;;5046867;28;20021;-66
2023/12/23 05:24:02;;;;;;;11.18;3.38;;;9.10;99.90;;;;;;5048743;28;20491;-65
2023/12/23 05:26:28;;;;;;;21.20;4.18;;;9.10;99.90;;;;;;5053313;28;20032;-65
2023/12/23 05:28:53;;;;;;;25.27;3.97;;;9.00;99.90;;;;;;5056967;28;20041;-65
2023/12/23 05:31:19;;;;;;;11.25;3.40;;;9.00;99.90;;;;;;5054377;28;20537;-66
2023/12/23 05:33:45;;;;;;;17.80;3.97;;;9.00;99.90;;;;;;5052909;28;20045;-66
2023/12/23 05:36:11;;;;;;;20.23;4.85;;;9.00;99.90;;;;;;5047216;28;20108;-66
2023/12/23 05:38:36;;;;;;;14.25;3.13;;;9.20;99.90;;;;;;5055799;28;20111;-66
2023/12/23 05:41:02;;;;;;;10.52;3.40;;;9.10;99.90;;;;;;5049675;28;20044;-66
2023/12/23 05:43:27;;;;;;;16.35;2.97;;;9.20;99.90;;;;;;5057210;28;20052;-66
2023/12/23 05:45:53;;;;;;;15.10;2.85;;;9.10;99.90;;;;;;5044997;28;20059;-67
2023/12/23 05:48:18;;;;;;;21.02;3.33;;;9.20;99.90;;;;;;5055758;28;20024;-67
2023/12/23 05:50:44;;;;;;;14.50;2.80;;;9.10;99.90;;;;;;5066679;28;20021;-66
2023/12/23 05:53:09;;;;;;;15.18;3.17;;;9.20;99.90;;;;;;5056279;28;20044;-66
2023/12/23 05:55:35;;;;;;;17.60;2.97;;;9.20;99.90;;;;;;5045176;28;20074;-66
2023/12/23 05:58:00;;;;;;;12.40;3.00;;;9.20;99.90;;;;;;5048248;28;20091;-66
2023/12/23 06:00:26;;;;;;;11.20;2.67;;;9.20;99.90;;;;;;5045701;28;20021;-66
2023/12/23 06:02:51;;;;;;;15.88;2.38;;;9.10;99.90;;;;;;5049889;28;20544;-66
2023/12/23 06:05:17;;;;;;;11.95;3.17;;;9.30;99.90;;;;;;5053391;28;20021;-66
2023/12/23 06:07:42;;;;;;;7.97;2.78;;;9.30;99.90;;;;;;5049048;28;20029;-65
2023/12/23 06:10:08;;;;;;;22.00;3.35;;;9.30;99.90;;;;;;5049947;28;20052;-66
2023/12/23 06:12:33;;;;;;;15.57;3.50;;;9.20;99.90;;;;;;5052236;28;20033;-66
2023/12/23 06:14:59;;;;;;;18.73;3.88;;;9.20;99.90;;;;;;5043786;28;20033;-65
2023/12/23 06:17:27;;;;;;;18.33;3.00;;;9.30;99.90;;;;;;5042788;28;20029;-66
2023/12/23 06:19:53;;;;;;;17.85;3.25;;;9.20;99.90;;;;;;5052380;28;20021;-66
2023/12/23 06:22:18;;;;;;;9.73;3.60;;;9.20;99.90;;;;;;5051861;28;20483;-66
2023/12/23 06:24:44;;;;;;;20.70;3.45;;;9.20;99.90;;;;;;5069411;28;20021;-66
2023/12/23 06:27:10;;;;;;;18.10;3.65;;;9.30;99.90;;;;;;5045765;28;20108;-65
2023/12/23 06:29:35;;;;;;;18.25;3.13;;;9.30;99.90;;;;;;5056731;28;20183;-66
2023/12/23 06:32:02;;;;;;;16.52;3.90;;;9.30;99.90;;;;;;5038746;28;20033;-66
2023/12/23 06:34:27;;;;;;;13.65;2.95;;;9.20;99.90;;;;;;5046444;28;20518;-66
2023/12/23 06:36:53;;;;;;;18.30;3.05;;;9.20;99.90;;;;;;5046173;28;20063;-66
2023/12/23 06:39:18;;;;;;;15.70;3.72;;;9.20;99.90;;;;;;5051320;28;20021;-66
2023/12/23 06:41:45;;;;;;;18.25;3.33;;;9.10;99.90;;;;;;5043909;28;20068;-66
2023/12/23 06:44:10;;;;;;;18.05;3.83;;;9.10;99.90;;;;;;5050012;28;20052;-64
2023/12/23 06:46:36;;;;;;;9.30;3.28;;;9.20;99.90;;;;;;5043574;28;20053;-65
2023/12/23 06:49:01;;;;;;;10.68;3.58;;;9.20;99.90;;;;;;5043999;28;20032;-64
2023/12/23 06:51:27;;;;;;;10.07;3.13;;;9.10;99.90;;;;;;5045153;28;20028;-66
2023/12/23 06:53:54;;;;;;;13.25;3.83;;;9.10;99.90;;;;;;5048235;28;20070;-66
2023/12/23 06:56:21;;;;;;;13.23;4.07;;;9.10;99.90;;;;;;5048456;28;20029;-66
2023/12/23 06:58:47;;;;;;;19.58;4.63;;;9.10;99.90;;;;;;5049839;28;20110;-65
2023/12/23 07:01:12;;;;;;;12.68;3.80;;;9.20;99.90;;;;;;5047752;28;20060;-65
2023/12/23 07:03:39;;;;;;;8.85;3.97;;;9.20;99.90;;;;;;5044652;28;20449;-65
2023/12/23 07:06:05;;;;;;;9.70;3.88;;;9.20;99.90;;;;;;5046225;28;20150;-66
2023/12/23 07:08:31;;;;;;;8.55;2.97;;;9.20;99.90;;;;;;5047685;28;20111;-66
2023/12/23 07:10:56;;;;;;;16.60;4.03;;;9.20;99.90;;;;;;5048186;28;20411;-66
2023/12/23 07:13:22;;;;;;;5.88;2.80;;;9.20;99.90;;;;;;5053250;28;20497;-66
2023/12/23 07:15:47;;;;;;;13.38;3.17;;;9.20;99.90;;;;;;5048430;28;20044;-66
2023/12/23 07:18:13;;;;;;;7.70;3.10;;;9.20;99.90;;;;;;5044873;28;20029;-65
2023/12/23 07:20:40;;;;;;;10.90;3.42;;;9.20;99.90;;;;;;5046752;28;20029;-66
2023/12/23 07:23:06;;;;;;;16.63;4.55;;;9.20;99.90;;;;;;5042183;28;20383;-65
2023/12/23 07:25:31;;;;;;;15.38;4.20;;;9.20;99.90;;;;;;5047956;28;20021;-66
2023/12/23 07:27:57;;;;;;;13.68;4.28;;;9.20;99.90;;;;;;5048465;28;20037;-65
2023/12/23 07:30:22;;;;;;;8.95;4.28;;;9.20;99.90;;;;;;5049198;28;20068;-65
2023/12/23 07:32:48;;;;;;;18.38;4.70;;;9.20;99.90;;;;;;5051516;28;20490;-66
2023/12/23 07:35:13;;;;;;;21.48;6.00;;;9.10;99.90;;;;;;5054147;28;20083;-66
2023/12/23 07:37:39;;;;;;;17.80;5.80;;;9.10;99.90;;;;;;5056636;28;20033;-65
2023/12/23 07:40:06;;;;;;;19.35;6.28;;;9.20;99.90;;;;;;5048028;28;20029;-66
2023/12/23 07:42:32;;;;;;;15.27;5.72;;;9.20;99.90;;;;;;5048546;28;20027;-65
2023/12/23 07:44:57;;;;;;;16.13;5.05;;;9.10;99.90;;;;;;5049665;28;20029;-65
2023/12/23 07:47:23;;;;;;;15.75;5.18;;;9.20;99.90;;;;;;5047642;28;20397;-65
2023/12/23 07:49:48;;;;;;;15.27;5.03;;;9.10;99.90;;;;;;5049605;28;20037;-65
2023/12/23 07:52:14;;;;;;;23.73;5.18;;;9.10;99.90;;;;;;5050407;28;20075;-65
2023/12/23 07:54:39;;;;;;;11.63;5.15;;;9.10;99.90;;;;;;5048931;28;20090;-67
2023/12/23 07:57:05;;;;;;;13.77;5.82;;;9.10;99.90;;;;;;5047029;28;20483;-65
2023/12/23 07:59:30;;;;;;;16.92;5.57;;;9.10;99.90;;;;;;5050773;28;20033;-64
2023/12/23 08:01:56;;;;;;;16.20;4.60;;;9.10;99.90;;;;;;5047443;28;20029;-65
2023/12/23 08:04:22;;;;;;;17.27;5.25;;;9.10;99.90;;;;;;5051278;28;20033;-64
2023/12/23 08:06:47;;;;;;;13.13;5.40;;;9.10;99.90;;;;;;5055562;28;20580;-67
2023/12/23 08:09:13;;;;;;;18.75;6.18;;;9.20;99.90;;;;;;5044734;28;20021;-64
2023/12/23 08:11:38;;;;;;;19.60;5.38;;;9.20;99.90;;;;;;5049397;28;20044;-66
2023/12/23 08:14:04;;;;;;;17.95;5.43;;;9.20;99.90;;;;;;5049802;28;20017;-64
2023/12/23 08:16:30;;;;;;;16.88;5.20;;;9.20;99.90;;;;;;5044579;28;20037;-65
2023/12/23 08:18:55;;;;;;;20.55;6.22;;;9.20;99.90;;;;;;5050168;28;20563;-65
2023/12/23 08:21:21;;;;;;;18.35;5.28;;;9.20;99.90;;;;;;5050437;28;20043;-65
2023/12/23 08:23:46;;;;;;;17.15;4.88;;;9.30;99.90;;;;;;5048884;28;20375;-65
2023/12/23 08:26:12;;;;;;;14.20;5.50;;;9.30;99.90;;;;;;5047749;28;20027;-65
2023/12/23 08:28:38;;;;;;;21.45;6.53;;;9.30;99.90;;;;;;5050084;28;20055;-63
2023/12/23 08:31:03;;;;;;;21.15;6.18;;;9.30;99.90;;;;;;5047195;28;20044;-64
2023/12/23 08:33:29;;;;;;;18.27;5.75;;;9.30;99.90;;;;;;5053107;28;20028;-65
2023/12/23 08:35:58;;;;;;;22.58;6.40;;;9.30;99.90;;;;;;5052361;28;20580;-66
2023/12/23 08:38:24;;;;;;;21.42;6.40;;;9.40;99.90;;;;;;5049308;28;20438;-65
2023/12/23 08:40:49;;;;;;;14.50;5.93;;;9.40;99.90;;;;;;5043570;28;20029;-65
2023/12/23 08:43:16;;;;;;;19.70;6.15;;;9.40;99.90;;;;;;5052166;28;20475;-66
2023/12/23 08:45:42;;;;;;;24.38;6.45;;;9.40;99.90;;;;;;5047202;28;20055;-63
2023/12/23 08:48:07;;;;;;;25.25;5.20;;;9.60;99.90;;;;;;5046520;28;20523;-64
2023/12/23 08:50:33;;;;;;;22.73;5.30;;;9.60;99.90;;;;;;5044559;28;20064;-64
2023/12/23 08:52:59;;;;;;;20.35;5.10;;;9.60;99.90;;;;;;5041171;28;20060;-64
2023/12/23 08:55:25;;;;;;;26.88;6.25;;;9.60;99.90;;;;;;5059031;28;20029;-63
2023/12/23 08:57:50;;;;;;;23.00;6.20;;;9.50;99.90;;;;;;5039766;28;20075;-64
2023/12/23 09:00:16;;;;;;;16.58;5.63;;;9.50;99.90;;;;;;5042349;28;20067;-65
2023/12/23 09:02:41;;;;;;;20.42;4.57;;;9.60;99.90;;;;;;5044760;28;20021;-63
2023/12/23 09:05:07;;;;;;;20.48;4.47;;;9.70;99.90;;;;;;5054059;28;20024;-65
2023/12/23 09:07:33;;;;;;;15.35;4.57;;;9.70;99.90;;;;;;5047007;28;20060;-64
2023/12/23 09:09:58;;;;;;;18.98;5.00;;;9.70;99.90;;;;;;5046035;28;20068;-64
2023/12/23 09:12:24;;;;;;;21.75;5.18;;;9.80;99.90;;;;;;5053304;28;20029;-65
2023/12/23 09:14:49;;;;;;;13.38;3.67;;;9.80;99.90;;;;;;5044438;28;20072;-65
2023/12/23 09:17:18;;;;;;;19.95;4.45;;;9.90;99.90;;;;;;5050599;28;20037;-64
2023/12/23 09:19:44;;;;;;;10.18;3.50;;;9.90;99.90;;;;;;5045169;28;20052;-64
2023/12/23 09:22:09;;;;;;;13.88;3.13;;;9.90;99.90;;;;;;5046560;28;20067;-63
2023/12/23 09:24:35;;;;;;;14.93;3.90;;;9.90;99.90;;;;;;5042061;28;20025;-61
2023/12/23 09:27:00;;;;;;;16.48;3.20;;;9.90;99.90;;;;;;5045034;28;20545;-63
2023/12/23 09:29:26;;;;;;;18.15;4.03;;;9.90;99.90;;;;;;5047015;28;20043;-64
2023/12/23 09:31:52;;;;;;;21.02;3.58;;;10.00;99.90;;;;;;5047271;28;20035;-63
2023/12/23 09:34:17;;;;;;;14.05;3.35;;;10.00;99.90;;;;;;5051429;28;20022;-63
2023/12/23 09:36:43;;;;;;;16.92;3.17;;;10.00;99.90;;;;;;5046143;28;20037;-63
2023/12/23 09:39:08;;;;;;;18.25;3.95;;;10.00;99.90;;;;;;5046807;28;20064;-63
2023/12/23 09:41:34;;;;;;;16.05;3.67;;;10.00;99.90;;;;;;5045153;28;20036;-63
2023/12/23 09:44:00;;;;;;;13.30;2.65;;;10.00;99.90;;;;;;5053411;28;20033;-64
2023/12/23 09:46:26;;;;;;;18.02;3.90;;;10.00;99.90;;;;;;5044883;28;21096;-63
2023/12/23 09:48:52;;;;;;;21.23;3.47;;;10.10;99.90;;;;;;5048613;28;20428;-62
2023/12/23 09:51:17;;;;;;;19.23;2.92;;;10.00;99.90;;;;;;5045634;28;20033;-65
2023/12/23 09:53:46;;;;;;;17.80;3.63;;;10.00;99.90;;;;;;5045948;28;20392;-64
2023/12/23 09:56:12;;;;;;;18.63;3.45;;;10.00;99.90;;;;;;5044316;28;20565;-65
2023/12/23 09:58:37;;;;;;;16.67;3.15;;;10.00;99.90;;;;;;5048920;28;20115;-65
2023/12/23 10:01:03;;;;;;;12.27;3.00;;;10.00;99.90;;;;;;5044468;28;20021;-64
2023/12/23 10:03:29;;;;;;;11.95;3.15;;;10.00;99.90;;;;;;5047350;28;20459;-64
2023/12/23 10:06:00;;;;;;;12.85;3.17;;;10.00;99.90;;;;;;5049698;28;20100;-65
2023/12/23 10:08:25;;;;;;;21.27;3.30;;;10.10;99.90;;;;;;5048341;28;20024;-64
2023/12/23 10:10:51;;;;;;;9.50;2.83;;;10.10;99.90;;;;;;5039259;28;20071;-65
2023/12/23 10:13:17;;;;;;;25.83;6.13;;;10.10;99.90;;;;;;5048581;28;20029;-63
2023/12/23 10:15:43;;;;;;;15.23;3.65;;;10.10;99.90;;;;;;5047199;28;20028;-64
2023/12/23 10:18:12;;;;;;;16.73;3.33;;;10.00;99.90;;;;;;5045668;28;20481;-62
2023/12/23 10:20:38;;;;;;;20.80;3.83;;;10.00;99.90;;;;;;5043426;28;20029;-63
2023/12/23 10:23:03;;;;;;;13.93;3.55;;;9.90;99.90;;;;;;5045310;28;20033;-64
2023/12/23 10:25:30;;;;;;;10.23;4.32;;;9.90;99.90;;;;;;5048929;28;20491;-64
2023/12/23 10:27:59;;;;;;;11.52;4.05;;;9.80;99.90;;;;;;5048014;28;20479;-64
2023/12/23 10:30:27;;;;;;;18.58;5.68;;;9.80;99.90;;;;;;5046020;28;20029;-63
2023/12/23 10:32:54;;;;;;;16.48;3.75;;;9.90;99.90;;;;;;5047123;28;20060;-61
2023/12/23 10:35:20;;;;;;;11.13;3.40;;;9.90;99.90;;;;;;5041742;28;20032;-64
2023/12/23 10:37:47;;;;;;;13.23;3.65;;;9.80;99.90;;;;;;5044620;28;20021;-65
2023/12/23 10:40:31;;;;;;;17.55;3.55;;;9.80;99.90;;;;;;5046484;28;20029;-62
2023/12/23 10:42:58;;;;;;;12.35;4.00;;;9.70;99.90;;;;;;5043774;28;20021;-64
2023/12/23 10:45:25;;;;;;;17.98;3.33;;;9.70;99.90;;;;;;5048319;28;20017;-64
2023/12/23 10:47:52;;;;;;;11.23;3.38;;;9.60;99.90;;;;;;5044911;28;20029;-65
2023/12/23 10:50:18;;;;;;;12.88;3.08;;;9.60;99.90;;;;;;5056568;28;20029;-64
2023/12/23 10:52:44;;;;;;;20.50;3.70;;;9.60;99.90;;;;;;5050615;28;20488;-64
2023/12/23 10:55:12;;;;;;;12.63;3.50;;;9.50;99.90;;;;;;5047379;28;20044;-63
2023/12/23 10:57:39;;;;;;;15.65;3.90;;;9.50;99.90;;;;;;5047994;28;20113;-64
2023/12/23 11:00:05;;;;;;;20.52;3.70;;;9.50;99.90;;;;;;5043516;28;20052;-64
2023/12/23 11:02:34;;;;;;;18.90;3.63;;;9.50;99.90;;;;;;5045287;28;20037;-65
2023/12/23 11:05:05;;;;;;;15.48;3.85;;;9.50;99.90;;;;;;5041470;28;20046;-65
2023/12/23 11:07:51;;;;;;;35.85;6.85;;;9.50;99.90;;;;;;5045654;28;20090;-64
2023/12/23 11:10:18;;;;;;;12.25;3.38;;;9.60;99.90;;;;;;5048722;28;20048;-62
2023/12/23 11:12:43;;;;;;;14.57;3.83;;;9.60;99.90;;;;;;5048705;28;20143;-64
2023/12/23 11:15:09;;;;;;;10.40;3.53;;;9.60;99.90;;;;;;5050066;28;20124;-65
2023/12/23 11:17:40;;;;;;;18.38;5.05;;;9.50;99.90;;;;;;5045027;28;20065;-62
2023/12/23 11:20:06;;;;;;;28.08;7.13;;;9.60;99.90;;;;;;5046289;28;20036;-64
2023/12/23 11:22:38;;;;;;;15.05;3.22;;;9.70;99.90;;;;;;5042097;28;20025;-66
2023/12/23 11:25:24;;;;;;;9.60;3.00;;;9.60;99.90;;;;;;5037446;28;20017;-65
2023/12/23 11:27:50;;;;;;;17.45;3.30;;;9.50;99.90;;;;;;5043311;28;20116;-65
2023/12/23 11:30:16;;;;;;;14.38;2.95;;;9.50;99.90;;;;;;5044651;28;20116;-64
2023/12/23 11:32:43;;;;;;;13.93;3.00;;;9.50;99.90;;;;;;5049045;28;20032;-64
2023/12/23 11:35:12;;;;;;;10.45;2.72;;;9.50;99.90;;;;;;5040325;28;20041;-65
2023/12/23 11:37:53;;;;;;;9.00;3.08;;;9.50;99.90;;;;;;5039376;28;20025;-65
2023/12/23 11:40:22;;;;;;;14.80;2.95;;;9.60;99.90;;;;;;5043099;28;20045;-65
2023/12/23 11:42:49;;;;;;;11.73;2.67;;;9.50;99.90;;;;;;5045288;28;20033;-66
2023/12/23 11:45:16;;;;;;;14.07;3.13;;;9.50;99.90;;;;;;5040477;28;20020;-65
2023/12/23 11:47:41;;;;;;;14.68;2.50;;;9.50;99.90;;;;;;5041777;28;20078;-66
2023/12/23 11:50:08;;;;;;;14.40;3.63;;;9.50;99.90;;;;;;5042278;28;20025;-65
2023/12/23 11:52:35;;;;;;;13.52;3.70;;;9.50;99.90;;;;;;5041918;28;20055;-64
2023/12/23 11:55:01;;;;;;;15.13;4.70;;;9.50;99.90;;;;;;5038298;28;20024;-65
2023/12/23 11:57:27;;;;;;;8.88;2.70;;;9.60;99.90;;;;;;5038013;28;20040;-64
2023/12/23 11:59:54;;;;;;;19.20;5.47;;;9.60;99.90;;;;;;5046746;28;20091;-65
2023/12/23 12:02:20;;;;;;;13.90;3.22;;;9.70;99.90;;;;;;5044888;28;20085;-65
2023/12/23 12:04:45;;;;;;;10.13;2.97;;;9.70;99.90;;;;;;5045058;28;20668;-64
2023/12/23 12:07:11;;;;;;;8.68;2.38;;;9.70;99.90;;;;;;5047968;28;20040;-65
2023/12/23 12:09:37;;;;;;;12.63;2.72;;;9.70;99.90;;;;;;5051893;28;20499;-65
2023/12/23 12:12:04;;;;;;;16.58;3.13;;;9.70;99.90;;;;;;5048259;28;20029;-65
2023/12/23 12:14:30;;;;;;;11.05;2.47;;;9.70;99.90;;;;;;5046355;28;20132;-66
2023/12/23 12:16:56;;;;;;;16.67;2.88;;;9.60;99.90;;;;;;5053141;28;20296;-65
2023/12/23 12:19:21;;;;;;;10.50;2.70;;;9.60;99.90;;;;;;5050054;28;20028;-65
2023/12/23 12:21:47;;;;;;;11.25;2.65;;;9.70;99.90;;;;;;5053972;28;20031;-65
2023/12/23 12:24:13;;;;;;;12.27;2.35;;;9.70;99.90;;;;;;5049017;28;20029;-65
2023/12/23 12:26:39;;;;;;;7.97;1.95;;;9.70;99.90;;;;;;5048011;28;20017;-66
2023/12/23 12:29:05;;;;;;;12.80;3.13;;;9.80;99.90;;;;;;5050920;28;20112;-65
2023/12/23 12:31:30;;;;;;;3.85;1.30;;;9.90;99.90;;;;;;5052541;28;20039;-64
2023/12/23 12:33:57;;;;;;;8.15;2.20;;;10.10;99.90;;;;;;5047238;28;20020;-64
2023/12/23 12:36:24;;;;;;;12.75;1.85;;;10.00;99.90;;;;;;5050980;28;20426;-64
2023/12/23 12:38:50;;;;;;;11.15;2.10;;;10.00;99.90;;;;;;5051608;28;20029;-65
2023/12/23 12:41:16;;;;;;;8.38;1.55;;;10.10;99.90;;;;;;5052469;28;20028;-63